createdAt,value
2022-08-11T00:01:37.272Z,1.45
2022-08-11T00:04:39.947Z,1.80
2022-08-11T00:07:53.687Z,1.58
2022-08-11T00:10:59.262Z,1.83
2022-08-11T00:17:08.602Z,1.63
2022-08-11T00:20:16.685Z,1.60
2022-08-11T00:23:19.793Z,1.48
2022-08-11T00:26:23.698Z,1.70
2022-08-11T00:29:25.359Z,1.60
2022-08-11T00:32:28.529Z,1.60
2022-08-11T00:35:54.097Z,1.60
2022-08-11T00:39:02.830Z,1.75
2022-08-11T00:42:10.142Z,1.70
2022-08-11T00:45:30.412Z,1.50
2022-08-11T00:49:08.965Z,1.40
2022-08-11T00:52:28.624Z,1.70
2022-08-11T00:55:36.388Z,1.60
2022-08-11T00:58:51.119Z,1.67
2022-08-11T01:02:14.677Z,1.50
2022-08-11T01:05:38.759Z,1.60
2022-08-11T01:08:40.481Z,1.80
2022-08-11T01:11:57.757Z,1.65
2022-08-11T01:15:37.394Z,1.70
2022-08-11T01:18:51.172Z,1.60
2022-08-11T01:22:30.369Z,1.63
2022-08-11T01:25:56.821Z,1.60
2022-08-11T01:29:29.940Z,1.65
2022-08-11T01:33:11.759Z,1.88
2022-08-11T01:36:53.550Z,1.63
2022-08-11T01:40:17.675Z,1.70
2022-08-11T01:43:50.114Z,1.67
2022-08-11T01:47:33.437Z,1.60
2022-08-11T01:50:51.519Z,1.63
2022-08-11T01:53:53.253Z,1.80
2022-08-11T01:57:04.133Z,1.63
2022-08-11T02:00:14.862Z,1.70
2022-08-11T02:03:25.822Z,1.60
2022-08-11T02:06:59.703Z,1.70
2022-08-11T02:10:36.364Z,1.83
2022-08-11T02:14:07.308Z,2.00
2022-08-11T02:17:20.981Z,1.60
2022-08-11T02:21:07.422Z,1.83
2022-08-11T02:24:22.111Z,2.00
2022-08-11T02:27:27.469Z,2.10
2022-08-11T02:30:37.102Z,2.40
2022-08-11T02:33:42.111Z,2.33
2022-08-11T02:36:55.125Z,1.92
2022-08-11T02:40:00.529Z,2.22
2022-08-11T02:46:21.874Z,2.10
2022-08-11T02:50:02.742Z,1.80
2022-08-11T02:53:17.994Z,2.42
2022-08-11T02:56:44.891Z,2.22
2022-08-11T02:59:59.328Z,2.30
2022-08-11T03:03:07.567Z,2.00
2022-08-11T03:06:24.439Z,2.10
2022-08-11T03:09:38.235Z,2.10
2022-08-11T03:13:16.823Z,2.30
2022-08-11T03:16:45.803Z,2.08
2022-08-11T03:20:12.577Z,2.05
2022-08-11T03:23:49.773Z,2.20
2022-08-11T03:27:07.018Z,2.15
2022-08-11T03:30:19.318Z,2.10
2022-08-11T03:34:04.148Z,2.17
2022-08-11T03:37:45.043Z,2.22
2022-08-11T03:42:02.368Z,1.80
2022-08-11T03:45:01.219Z,1.98
2022-08-11T03:48:11.910Z,2.17
2022-08-11T03:51:22.802Z,2.15
2022-08-11T03:54:47.599Z,2.00
2022-08-11T03:58:13.579Z,2.03
2022-08-11T04:01:45.674Z,1.90
2022-08-11T04:05:24.766Z,2.10
2022-08-11T04:09:00.390Z,2.03
2022-08-11T04:12:36.394Z,2.00
2022-08-11T04:16:10.952Z,1.90
2022-08-11T04:19:29.533Z,2.20
2022-08-11T04:22:54.229Z,1.80
2022-08-11T04:26:16.143Z,1.80
2022-08-11T04:30:05.019Z,1.88
2022-08-11T04:33:36.434Z,2.10
2022-08-11T04:37:05.741Z,1.88
2022-08-11T04:40:49.734Z,2.00
2022-08-11T04:44:07.780Z,1.73
2022-08-11T04:48:15.500Z,1.77
2022-08-11T04:51:50.530Z,2.08
2022-08-11T04:55:44.992Z,1.70
2022-08-11T04:59:14.730Z,2.10
2022-08-11T05:02:46.703Z,1.92
2022-08-11T05:06:05.928Z,1.77
2022-08-11T05:09:10.576Z,1.80
2022-08-11T05:12:20.759Z,1.58
2022-08-11T05:16:12.058Z,1.67
2022-08-11T05:19:37.594Z,1.80
2022-08-11T05:23:06.306Z,1.80
2022-08-11T05:26:47.045Z,2.05
2022-08-11T05:30:15.396Z,1.73
2022-08-11T05:34:07.479Z,1.67
2022-08-11T05:37:33.112Z,1.80
2022-08-11T05:40:59.926Z,1.90
2022-08-11T05:44:23.030Z,1.60
2022-08-11T05:47:44.842Z,1.52
2022-08-11T05:51:16.644Z,1.70
2022-08-11T05:54:37.712Z,1.70
2022-08-11T05:57:50.810Z,1.80
2022-08-11T06:00:54.263Z,1.77
2022-08-11T06:04:16.230Z,1.80
2022-08-11T06:07:17.998Z,1.70
2022-08-11T06:10:49.384Z,2.20
2022-08-11T06:13:52.793Z,1.90
2022-08-11T06:17:01.704Z,1.95
2022-08-11T06:20:12.037Z,2.10
2022-08-11T06:23:18.094Z,1.90
2022-08-11T06:26:20.470Z,2.05
2022-08-11T06:29:38.106Z,1.77
2022-08-11T06:32:55.598Z,1.70
2022-08-11T06:36:12.398Z,1.80
2022-08-11T06:42:44.944Z,1.77
2022-08-11T06:46:03.943Z,1.63
2022-08-11T06:49:07.026Z,2.00
2022-08-11T06:52:35.792Z,1.70
2022-08-11T06:56:01.493Z,1.88
2022-08-11T06:59:22.096Z,1.58
2022-08-11T07:02:47.273Z,1.70
2022-08-11T07:05:56.004Z,1.60
2022-08-11T07:09:25.481Z,1.70
2022-08-11T07:12:59.219Z,1.67
2022-08-11T07:16:12.734Z,1.65
2022-08-11T07:19:40.233Z,1.85
2022-08-11T07:23:10.397Z,1.85
2022-08-11T07:26:32.199Z,2.00
2022-08-11T07:29:36.711Z,1.88
2022-08-11T07:32:52.082Z,2.10
2022-08-11T07:35:57.217Z,2.17
2022-08-11T07:39:00.193Z,2.20
2022-08-11T07:42:07.137Z,2.38
2022-08-11T07:45:28.886Z,2.30
2022-08-11T07:48:50.572Z,2.20
2022-08-11T07:52:12.364Z,2.28
2022-08-11T07:55:16.926Z,2.28
2022-08-11T07:58:45.811Z,2.28
2022-08-11T08:02:13.573Z,2.55
2022-08-11T08:05:36.444Z,2.10
2022-08-11T08:08:59.600Z,2.58
2022-08-11T08:12:22.638Z,2.30
2022-08-11T08:15:42.804Z,2.10
2022-08-11T08:18:44.929Z,2.13
2022-08-11T08:21:48.354Z,2.28
2022-08-11T08:24:51.372Z,2.20
2022-08-11T08:27:58.195Z,2.08
2022-08-11T08:31:00.361Z,1.98
2022-08-11T08:34:03.398Z,2.08
2022-08-11T08:37:16.145Z,2.08
2022-08-11T08:40:28.247Z,2.25
2022-08-11T08:43:32.562Z,1.80
2022-08-11T08:46:54.868Z,1.80
2022-08-11T08:50:02.584Z,1.77
2022-08-11T08:53:08.300Z,1.75
2022-08-11T08:56:11.005Z,2.20
2022-08-11T08:59:14.690Z,2.00
2022-08-11T09:02:20.597Z,1.80
2022-08-11T09:05:37.484Z,1.90
2022-08-11T09:08:40.857Z,1.75
2022-08-11T09:11:56.063Z,1.90
2022-08-11T09:15:05.794Z,1.70
2022-08-11T09:18:09.365Z,1.80
2022-08-11T09:21:39.355Z,1.70
2022-08-11T09:27:59.439Z,1.77
2022-08-11T09:31:02.564Z,1.80
2022-08-11T09:34:04.441Z,2.42
2022-08-11T09:37:53.321Z,1.75
2022-08-11T09:40:56.325Z,1.70
2022-08-11T09:44:19.890Z,1.80
2022-08-11T09:47:24.536Z,1.70
2022-08-11T09:50:26.599Z,1.80
2022-08-11T09:53:40.717Z,1.80
2022-08-11T09:57:05.354Z,1.70
2022-08-11T10:00:13.076Z,1.80
2022-08-11T10:03:19.203Z,1.80
2022-08-11T10:06:39.492Z,1.67
2022-08-11T10:09:46.820Z,1.80
2022-08-11T10:14:31.532Z,1.90
2022-08-11T10:16:50.029Z,1.80
2022-08-11T10:20:05.506Z,1.90
2022-08-11T10:23:28.965Z,1.90
2022-08-11T10:26:51.606Z,1.60
2022-08-11T10:30:14.637Z,1.83
2022-08-11T10:33:39.218Z,1.77
2022-08-11T10:36:50.126Z,1.70
2022-08-11T10:39:53.668Z,1.60
2022-08-11T10:43:13.080Z,1.90
2022-08-11T10:46:34.305Z,1.83
2022-08-11T10:49:36.221Z,2.00
2022-08-11T10:52:58.436Z,2.00
2022-08-11T10:56:20.791Z,1.60
2022-08-11T10:59:26.794Z,2.00
2022-08-11T11:02:31.286Z,1.80
2022-08-11T11:05:33.128Z,2.25
2022-08-11T11:08:57.649Z,1.75
2022-08-11T11:12:54.962Z,1.80
2022-08-11T11:16:15.126Z,1.90
2022-08-11T11:19:23.941Z,2.00
2022-08-11T11:22:40.063Z,1.92
2022-08-11T11:26:06.553Z,1.80
2022-08-11T11:32:35.214Z,1.70
2022-08-11T11:35:48.805Z,1.85
2022-08-11T11:38:50.638Z,1.80
2022-08-11T11:41:55.696Z,2.00
2022-08-11T11:45:01.182Z,1.90
2022-08-11T11:51:05.622Z,1.92
2022-08-11T11:54:10.700Z,2.00
2022-08-11T11:57:34.061Z,2.00
2022-08-11T12:00:54.880Z,1.65
2022-08-11T12:03:57.716Z,1.80
2022-08-11T12:07:18.160Z,1.70
2022-08-11T12:10:20.142Z,1.60
2022-08-11T12:13:40.327Z,1.85
2022-08-11T12:16:44.594Z,1.63
2022-08-11T12:19:48.601Z,1.67
2022-08-11T12:23:09.254Z,1.83
2022-08-11T12:26:36.474Z,1.77
2022-08-11T12:29:41.157Z,1.70
2022-08-11T12:32:46.020Z,1.88
2022-08-11T12:36:01.131Z,2.00
2022-08-11T12:39:23.319Z,1.80
2022-08-11T12:42:45.818Z,1.60
2022-08-11T12:46:00.337Z,1.73
2022-08-11T12:49:45.226Z,1.90
2022-08-11T12:52:54.164Z,1.67
2022-08-11T12:56:18.080Z,1.80
2022-08-11T12:59:38.774Z,1.80
2022-08-11T13:02:59.986Z,1.95
2022-08-11T13:06:04.049Z,1.70
2022-08-11T13:09:07.605Z,1.65
2022-08-11T13:12:29.086Z,1.80
2022-08-11T13:15:31.766Z,1.70
2022-08-11T13:18:34.393Z,1.55
2022-08-11T13:21:36.583Z,1.63
2022-08-11T13:24:39.561Z,1.80
2022-08-11T13:27:41.648Z,1.75
2022-08-11T13:31:02.085Z,1.60
2022-08-11T13:37:05.733Z,1.73
2022-08-11T13:40:09.128Z,1.80
2022-08-11T13:43:11.884Z,1.70
2022-08-11T13:46:20.128Z,1.70
2022-08-11T13:49:22.584Z,1.77
2022-08-11T13:52:26.319Z,1.63
2022-08-11T13:55:51.642Z,1.77
2022-08-11T13:58:53.838Z,1.80
2022-08-11T14:02:21.187Z,1.55
2022-08-11T14:05:29.112Z,1.52
2022-08-11T14:08:38.904Z,1.60
2022-08-11T14:12:22.437Z,1.70
2022-08-11T14:15:31.084Z,1.65
2022-08-11T14:18:33.957Z,1.70
2022-08-11T14:21:56.699Z,1.60
2022-08-11T14:24:58.808Z,1.60
2022-08-11T14:28:29.717Z,1.80
2022-08-11T14:31:27.398Z,1.65
2022-08-11T14:34:57.211Z,1.60
2022-08-11T14:37:59.291Z,1.70
2022-08-11T14:41:20.518Z,1.63
2022-08-11T14:44:41.164Z,1.65
2022-08-11T14:47:44.718Z,1.85
2022-08-11T14:50:46.986Z,1.70
2022-08-11T14:54:09.107Z,1.70
2022-08-11T14:57:11.608Z,1.73
2022-08-11T15:00:15.805Z,1.70
2022-08-11T15:03:17.866Z,1.60
2022-08-11T15:06:19.835Z,1.92
2022-08-11T15:09:21.685Z,1.77
2022-08-11T15:12:31.547Z,1.67
2022-08-11T15:15:54.856Z,1.88
2022-08-11T15:18:57.846Z,1.75
2022-08-11T15:22:18.041Z,1.75
2022-08-11T15:25:20.908Z,1.73
2022-08-11T15:28:44.252Z,1.70
2022-08-11T15:32:07.665Z,1.75
2022-08-11T15:35:38.963Z,1.70
2022-08-11T15:39:08.904Z,1.90
2022-08-11T15:42:39.974Z,1.70
2022-08-11T15:45:49.151Z,1.80
2022-08-11T15:48:58.005Z,1.58
2022-08-11T15:52:06.317Z,1.70
2022-08-11T15:55:09.171Z,1.60
2022-08-11T15:58:31.899Z,1.67
2022-08-11T16:01:54.141Z,1.50
2022-08-11T16:04:56.925Z,1.70
2022-08-11T16:07:59.789Z,1.67
2022-08-11T16:11:06.507Z,1.50
2022-08-11T16:14:34.250Z,1.50
2022-08-11T16:17:45.085Z,1.80
2022-08-11T16:20:49.068Z,1.75
2022-08-11T16:23:53.441Z,1.60
2022-08-11T16:27:07.692Z,1.80
2022-08-11T16:30:16.983Z,1.80
2022-08-11T16:33:35.575Z,1.77
2022-08-11T16:37:01.028Z,1.90
2022-08-11T16:40:03.908Z,1.50
2022-08-11T16:43:30.723Z,1.83
2022-08-11T16:46:51.688Z,1.60
2022-08-11T16:49:58.691Z,1.67
2022-08-11T16:53:00.360Z,1.70
2022-08-11T16:56:10.129Z,1.50
2022-08-11T16:59:19.743Z,1.48
2022-08-11T17:02:43.021Z,1.60
2022-08-11T17:06:10.308Z,1.40
2022-08-11T17:09:37.172Z,1.50
2022-08-11T17:13:00.278Z,1.70
2022-08-11T17:16:07.347Z,1.60
2022-08-11T17:19:13.861Z,1.70
2022-08-11T17:22:36.490Z,1.73
2022-08-11T17:26:03.677Z,2.60
2022-08-11T17:29:02.485Z,1.75
2022-08-11T17:32:26.737Z,1.60
2022-08-11T17:35:32.605Z,1.75
2022-08-11T17:41:57.436Z,1.50
2022-08-11T17:45:19.627Z,1.60
2022-08-11T17:48:27.501Z,1.60
2022-08-11T17:51:48.875Z,1.58
2022-08-11T17:55:10.261Z,1.70
2022-08-11T17:58:35.787Z,1.50
2022-08-11T18:01:39.019Z,1.70
2022-08-11T18:04:44.706Z,1.50
2022-08-11T18:08:06.873Z,1.50
2022-08-11T18:12:10.682Z,1.60
2022-08-11T18:15:13.295Z,1.52
2022-08-11T18:18:33.506Z,1.73
2022-08-11T18:22:12.848Z,1.70
2022-08-11T18:25:44.775Z,1.83
2022-08-11T18:29:10.846Z,1.60
2022-08-11T18:32:49.171Z,1.80
2022-08-11T18:36:17.251Z,1.95
2022-08-11T18:39:40.438Z,2.00
2022-08-11T18:43:02.092Z,2.47
2022-08-11T18:46:25.795Z,2.22
2022-08-11T18:50:02.353Z,2.35
2022-08-11T18:53:25.355Z,2.20
2022-08-11T18:56:46.592Z,2.00
2022-08-11T19:00:08.823Z,2.10
2022-08-11T19:03:31.817Z,1.90
2022-08-11T19:07:06.315Z,2.00
2022-08-11T19:10:27.481Z,1.92
2022-08-11T19:13:51.590Z,1.85
2022-08-11T19:17:14.486Z,1.90
2022-08-11T19:20:56.165Z,1.73
2022-08-11T19:24:20.064Z,1.80
2022-08-11T19:27:43.539Z,1.80
2022-08-11T19:31:04.457Z,1.75
2022-08-11T19:34:26.786Z,1.90
2022-08-11T19:37:47.891Z,1.90
2022-08-11T19:41:08.954Z,1.83
2022-08-11T19:44:30.987Z,1.73
2022-08-11T19:48:03.404Z,1.63
2022-08-11T19:51:33.757Z,1.95
2022-08-11T19:54:55.358Z,1.80
2022-08-11T19:58:16.142Z,1.95
2022-08-11T20:01:36.482Z,2.00
2022-08-11T20:04:56.709Z,2.15
2022-08-11T20:08:18.632Z,2.08
2022-08-11T20:11:40.613Z,1.92
2022-08-11T20:15:02.278Z,1.77
2022-08-11T20:18:25.373Z,1.83
2022-08-11T20:21:47.110Z,1.90
2022-08-11T20:25:08.984Z,1.73
2022-08-11T20:28:32.917Z,1.88
2022-08-11T20:31:56.282Z,1.88
2022-08-11T20:35:18.380Z,1.80
2022-08-11T20:38:41.388Z,2.00
2022-08-11T20:42:03.330Z,1.80
2022-08-11T20:45:26.593Z,1.95
2022-08-11T20:48:49.441Z,2.25
2022-08-11T20:52:10.200Z,2.08
2022-08-11T20:55:52.010Z,1.90
2022-08-11T20:59:17.733Z,2.08
2022-08-11T21:02:40.919Z,2.20
2022-08-11T21:06:10.351Z,2.03
2022-08-11T21:10:01.218Z,2.00
2022-08-11T21:13:25.131Z,2.08
2022-08-11T21:16:53.106Z,1.95
2022-08-11T21:20:21.102Z,1.75
2022-08-11T21:23:43.131Z,1.90
2022-08-11T21:27:06.638Z,2.00
2022-08-11T21:30:27.472Z,1.98
2022-08-11T21:33:50.150Z,2.00
2022-08-11T21:37:11.885Z,2.00
2022-08-11T21:40:35.351Z,1.95
2022-08-11T21:43:58.978Z,1.95
2022-08-11T21:47:21.478Z,2.10
2022-08-11T21:51:01.498Z,1.95
2022-08-11T21:54:22.804Z,2.10
2022-08-11T21:57:47.781Z,1.95
2022-08-11T22:01:10.161Z,1.90
2022-08-11T22:04:31.964Z,2.10
2022-08-11T22:07:52.158Z,2.00
2022-08-11T22:11:12.865Z,2.25
2022-08-11T22:14:33.066Z,2.10
2022-08-11T22:17:57.416Z,1.98
2022-08-11T22:22:01.158Z,2.00
2022-08-11T22:25:00.289Z,2.00
2022-08-11T22:28:20.672Z,2.20
2022-08-11T22:31:41.270Z,2.38
2022-08-11T22:35:01.914Z,2.08
2022-08-11T22:38:22.510Z,2.28
2022-08-11T22:41:43.376Z,2.13
2022-08-11T22:45:03.729Z,2.10
2022-08-11T22:48:24.381Z,1.98
2022-08-11T22:51:45.587Z,2.10
2022-08-11T22:55:07.448Z,2.10
2022-08-11T22:58:30.761Z,2.00
2022-08-11T23:01:56.591Z,2.10
2022-08-11T23:05:18.297Z,2.10
2022-08-11T23:08:39.378Z,2.10
2022-08-11T23:12:07.018Z,1.83
2022-08-11T23:15:30.426Z,2.08
2022-08-11T23:18:50.987Z,2.05
2022-08-11T23:22:12.943Z,1.70
2022-08-11T23:25:33.382Z,2.10
2022-08-11T23:28:54.064Z,2.00
2022-08-11T23:32:22.319Z,2.20
2022-08-11T23:35:52.714Z,2.63
2022-08-11T23:39:17.481Z,2.13
2022-08-11T23:42:38.243Z,2.25
2022-08-11T23:45:58.692Z,2.30
2022-08-11T23:49:22.636Z,1.95
2022-08-11T23:52:44.868Z,2.10
2022-08-11T23:56:05.480Z,2.40
2022-08-11T23:59:26.905Z,2.17
